Ocean Highway — H3IE — position and weather

sailwx.info

Track history (hours):
 
Tides and Currents Weather Stations Pressure Air Temp Water Temp Dewpoint Dewpoint Depression Visibility Wind Speed Wind Dir Waves Ship Positions

Ocean Highway

Last reported at 2017-Aug-10 21:40 UTC. Time now 2017-Aug-19 20:19 UTC.
Position N 01°14' E 103°60'.
Warning: this ship's position is 8 days out of date.

Length 179.1 m; beam 32.2 m.

Type: Cargo ship. MMSI: 353951000.

Date/timePositionNaut miles runAvg speedWind from/ knotsBaromVisibWave heightAir tempDewpointWater temp
2017-Aug-10 21:40N 01°14' E 103°60'317.4
2017-Aug-10 21:30N 01°13' E 103°57'714.7
2017-Aug-10 21:00N 01°12' E 103°50'510.1
2017-Aug-10 20:30N 01°15' E 103°46'2 3.8
2017-Aug-10 19:57N 01°17' E 103°45'0 0.0
2017-Aug-10 19:27N 01°17' E 103°45'0 0.0
2017-Aug-10 18:57N 01°17' E 103°45'0 0.0
2017-Aug-10 18:30N 01°17' E 103°45'0 0.0
2017-Aug-10 18:00N 01°17' E 103°45'0 0.0
2017-Aug-10 17:12N 01°17' E 103°45'0 0.0
2017-Aug-10 17:00N 01°17' E 103°45'0 0.0
2017-Aug-10 16:27N 01°17' E 103°45'0 0.0
2017-Aug-10 16:00N 01°17' E 103°45'0 0.0
2017-Aug-10 15:27N 01°17' E 103°45'0 0.0
2017-Aug-10 14:57N 01°17' E 103°45'0 0.0
2017-Aug-10 14:30N 01°17' E 103°45'0 0.0
2017-Aug-10 13:57N 01°17' E 103°45'0 0.0
2017-Aug-10 13:27N 01°17' E 103°45'0 0.0
2017-Aug-10 13:00N 01°17' E 103°45'0 0.0
2017-Aug-10 12:27N 01°17' E 103°45'0 0.1
2017-Aug-10 12:00N 01°17' E 103°45'3 5.6
2017-Aug-10 11:30N 01°15' E 103°47'611.5
2017-Aug-10 11:00N 01°13' E 103°52'5 9.3
2017-Aug-10 10:30N 01°14' E 103°56'610.6
2017-Aug-10 09:56N 01°16' E 104°02'  
2017-Aug-06 04:29N 01°15' E 104°03'715.1
2017-Aug-06 04:00N 01°13' E 103°56'713.8
2017-Aug-06 03:31N 01°11' E 103°50'4 8.5
2017-Aug-06 03:01N 01°14' E 103°47'3 6.9
2017-Aug-06 02:31N 01°17' E 103°45'0 0.2
2017-Aug-06 01:57N 01°17' E 103°45'0 0.0
2017-Aug-06 01:18N 01°17' E 103°45'0 0.0
2017-Aug-06 00:57N 01°17' E 103°45'0 0.0
2017-Aug-06 00:27N 01°17' E 103°45'0 0.0
2017-Aug-05 23:57N 01°17' E 103°45'0 0.0
2017-Aug-05 23:15N 01°17' E 103°45'0 0.0
2017-Aug-05 22:57N 01°17' E 103°45'0 0.0
2017-Aug-05 22:18N 01°17' E 103°45'0 0.0
2017-Aug-05 21:51N 01°17' E 103°45'0 0.0
2017-Aug-05 21:30N 01°17' E 103°45'0 0.0
2017-Aug-05 20:51N 01°17' E 103°45'0 0.0
2017-Aug-05 20:27N 01°17' E 103°45'0 0.0
2017-Aug-05 20:00N 01°17' E 103°45'0 0.0
2017-Aug-05 19:09N 01°17' E 103°45'0 0.0
2017-Aug-05 19:00N 01°17' E 103°45'0 0.0
2017-Aug-05 18:27N 01°17' E 103°45'0 0.0
2017-Aug-05 18:00N 01°17' E 103°45'0 0.8
2017-Aug-05 17:30N 01°17' E 103°45'3 6.2
2017-Aug-05 17:00N 01°14' E 103°47'4 8.2
2017-Aug-05 16:30N 01°12' E 103°51'4 8.5
2017-Aug-05 16:00N 01°14' E 103°55'2 4.1
2017-Aug-05 15:30N 01°15' E 103°57'3 6.6
2017-Aug-05 15:00N 01°15' E 103°60'  
Track history (hours):
 
Tides and Currents Weather Stations Pressure Air Temp Water Temp Dewpoint Dewpoint Depression Visibility Wind Speed Wind Dir Waves Ship Positions

Ocean Highway

Last reported at 2017-Aug-10 21:40 UTC. Time now 2017-Aug-19 20:19 UTC.
Position N 01°14' E 103°60'.
Warning: this ship's position is 8 days out of date.

Length 179.1 m; beam 32.2 m.

Type: Cargo ship. MMSI: 353951000.

Date/timePositionNaut miles runAvg speedWind from/ knotsBaromVisibWave heightAir tempDewpointWater temp
2017-Aug-10 21:40N 01°14' E 103°60'317.4
2017-Aug-10 21:30N 01°13' E 103°57'714.7
2017-Aug-10 21:00N 01°12' E 103°50'510.1
2017-Aug-10 20:30N 01°15' E 103°46'2 3.8
2017-Aug-10 19:57N 01°17' E 103°45'0 0.0
2017-Aug-10 19:27N 01°17' E 103°45'0 0.0
2017-Aug-10 18:57N 01°17' E 103°45'0 0.0
2017-Aug-10 18:30N 01°17' E 103°45'0 0.0
2017-Aug-10 18:00N 01°17' E 103°45'0 0.0
2017-Aug-10 17:12N 01°17' E 103°45'0 0.0
2017-Aug-10 17:00N 01°17' E 103°45'0 0.0
2017-Aug-10 16:27N 01°17' E 103°45'0 0.0
2017-Aug-10 16:00N 01°17' E 103°45'0 0.0
2017-Aug-10 15:27N 01°17' E 103°45'0 0.0
2017-Aug-10 14:57N 01°17' E 103°45'0 0.0
2017-Aug-10 14:30N 01°17' E 103°45'0 0.0
2017-Aug-10 13:57N 01°17' E 103°45'0 0.0
2017-Aug-10 13:27N 01°17' E 103°45'0 0.0
2017-Aug-10 13:00N 01°17' E 103°45'0 0.0
2017-Aug-10 12:27N 01°17' E 103°45'0 0.1
2017-Aug-10 12:00N 01°17' E 103°45'3 5.6
2017-Aug-10 11:30N 01°15' E 103°47'611.5
2017-Aug-10 11:00N 01°13' E 103°52'5 9.3
2017-Aug-10 10:30N 01°14' E 103°56'610.6
2017-Aug-10 09:56N 01°16' E 104°02'  
2017-Aug-06 04:29N 01°15' E 104°03'715.1
2017-Aug-06 04:00N 01°13' E 103°56'713.8
2017-Aug-06 03:31N 01°11' E 103°50'4 8.5
2017-Aug-06 03:01N 01°14' E 103°47'3 6.9
2017-Aug-06 02:31N 01°17' E 103°45'0 0.2
2017-Aug-06 01:57N 01°17' E 103°45'0 0.0
2017-Aug-06 01:18N 01°17' E 103°45'0 0.0
2017-Aug-06 00:57N 01°17' E 103°45'0 0.0
2017-Aug-06 00:27N 01°17' E 103°45'0 0.0
2017-Aug-05 23:57N 01°17' E 103°45'0 0.0
2017-Aug-05 23:15N 01°17' E 103°45'0 0.0
2017-Aug-05 22:57N 01°17' E 103°45'0 0.0
2017-Aug-05 22:18N 01°17' E 103°45'0 0.0
2017-Aug-05 21:51N 01°17' E 103°45'0 0.0
2017-Aug-05 21:30N 01°17' E 103°45'0 0.0
2017-Aug-05 20:51N 01°17' E 103°45'0 0.0
2017-Aug-05 20:27N 01°17' E 103°45'0 0.0
2017-Aug-05 20:00N 01°17' E 103°45'0 0.0
2017-Aug-05 19:09N 01°17' E 103°45'0 0.0
2017-Aug-05 19:00N 01°17' E 103°45'0 0.0
2017-Aug-05 18:27N 01°17' E 103°45'0 0.0
2017-Aug-05 18:00N 01°17' E 103°45'0 0.8
2017-Aug-05 17:30N 01°17' E 103°45'3 6.2
2017-Aug-05 17:00N 01°14' E 103°47'4 8.2
2017-Aug-05 16:30N 01°12' E 103°51'4 8.5
2017-Aug-05 16:00N 01°14' E 103°55'2 4.1
2017-Aug-05 15:30N 01°15' E 103°57'3 6.6
2017-Aug-05 15:00N 01°15' E 103°60'  

Dump ship's entire track history